Time;durP1;ratioP1;P1;durP2;ratioP2;P2;SDS_P1;SDS_P2;PMS_P1;PMS_P2;Temp;Humidity;BMP_temperature;BMP_pressure;BME280_temperature;BME280_humidity;BME280_pressure;Samples;Min_cycle;Max_cycle;Signal;HPM_P1;HPM_P2
2024/03/28 00:01:55;;;;;;;204.18;194.10;;;9.20;99.90;;;;;;5044271;28;20033;-72
2024/03/28 00:04:21;;;;;;;188.93;179.70;;;9.10;99.90;;;;;;5055717;28;20492;-73
2024/03/28 00:06:47;;;;;;;157.57;149.95;;;9.20;99.90;;;;;;5055792;28;20032;-73
2024/03/28 00:09:13;;;;;;;156.68;149.02;;;9.20;99.90;;;;;;5056044;28;20036;-73
2024/03/28 00:11:39;;;;;;;121.45;115.65;;;9.10;99.90;;;;;;5055560;28;20044;-73
2024/03/28 00:14:05;;;;;;;110.70;105.43;;;9.10;99.90;;;;;;5055702;28;20040;-73
2024/03/28 00:16:32;;;;;;;97.85;93.13;;;9.00;99.90;;;;;;5055137;28;20029;-73
2024/03/28 00:18:58;;;;;;;71.65;68.15;;;9.00;99.90;;;;;;5055919;28;20068;-74
2024/03/28 00:21:24;;;;;;;57.90;55.13;;;8.90;99.90;;;;;;5055195;28;20052;-73
2024/03/28 00:23:50;;;;;;;47.67;45.40;;;8.90;99.90;;;;;;5055856;28;20386;-73
2024/03/28 00:26:16;;;;;;;50.75;48.30;;;8.90;99.90;;;;;;5055329;28;20029;-73
2024/03/28 00:28:42;;;;;;;56.20;53.55;;;8.90;99.90;;;;;;5055299;28;20397;-73
2024/03/28 00:31:09;;;;;;;46.75;44.55;;;8.90;99.90;;;;;;5054868;28;20037;-73
2024/03/28 00:33:35;;;;;;;57.53;54.83;;;8.90;99.90;;;;;;5055465;28;20055;-73
2024/03/28 00:36:01;;;;;;;57.63;54.90;;;8.80;99.90;;;;;;5070184;28;20033;-73
2024/03/28 00:38:27;;;;;;;52.25;49.80;;;8.80;99.90;;;;;;5054330;28;20037;-73
2024/03/28 00:40:54;;;;;;;45.08;42.97;;;8.90;99.90;;;;;;5055028;28;20032;-73
2024/03/28 00:43:21;;;;;;;46.05;43.88;;;8.90;99.90;;;;;;5055256;28;20029;-73
2024/03/28 00:45:47;;;;;;;50.40;48.05;;;8.90;99.90;;;;;;5054628;28;20040;-74
2024/03/28 00:48:15;;;;;;;42.00;39.97;;;8.90;99.90;;;;;;5055455;28;20037;-73
2024/03/28 00:50:41;;;;;;;40.63;38.72;;;8.90;99.90;;;;;;5054788;28;20045;-73
2024/03/28 00:53:07;;;;;;;40.28;38.38;;;9.00;99.90;;;;;;5055418;28;20081;-73
2024/03/28 00:55:34;;;;;;;50.63;48.22;;;9.10;99.90;;;;;;5050881;28;20032;-73
2024/03/28 00:58:00;;;;;;;55.60;52.95;;;9.10;99.90;;;;;;5034990;28;20064;-73
2024/03/28 01:00:26;;;;;;;67.00;63.83;;;9.10;99.90;;;;;;5036739;28;20029;-73
2024/03/28 01:02:52;;;;;;;70.90;67.55;;;9.00;99.90;;;;;;5055269;28;20041;-73
2024/03/28 01:05:20;;;;;;;56.67;53.97;;;9.00;99.90;;;;;;5054630;28;20028;-73
2024/03/28 01:07:46;;;;;;;57.17;54.47;;;9.00;99.90;;;;;;5054883;28;20049;-74
2024/03/28 01:10:12;;;;;;;68.10;64.88;;;9.00;99.90;;;;;;5054306;28;20063;-74
2024/03/28 01:12:38;;;;;;;81.72;77.82;;;9.00;99.90;;;;;;5054760;28;20028;-73
2024/03/28 01:15:05;;;;;;;75.70;72.10;;;9.00;99.90;;;;;;5053600;28;20032;-74
2024/03/28 01:17:31;;;;;;;71.75;68.32;;;9.00;99.90;;;;;;5054670;28;20036;-74
2024/03/28 01:19:57;;;;;;;51.20;48.78;;;8.90;99.90;;;;;;5054934;28;20036;-72
2024/03/28 01:22:23;;;;;;;44.35;42.25;;;8.90;99.90;;;;;;5054063;28;20044;-73
2024/03/28 01:24:49;;;;;;;55.42;52.80;;;8.90;99.90;;;;;;5054768;28;20390;-74
2024/03/28 01:27:15;;;;;;;92.35;87.93;;;8.90;99.90;;;;;;5053745;28;20029;-72
2024/03/28 01:29:41;;;;;;;47.00;44.78;;;8.90;99.90;;;;;;5053352;28;20041;-74
2024/03/28 01:32:07;;;;;;;81.00;77.10;;;8.80;99.90;;;;;;5053583;28;20033;-74
2024/03/28 01:34:33;;;;;;;81.18;77.28;;;8.70;99.90;;;;;;5054478;28;20032;-73
2024/03/28 01:36:59;;;;;;;49.58;47.22;;;8.70;99.90;;;;;;5053867;28;20033;-74
2024/03/28 01:39:25;;;;;;;68.80;65.50;;;8.70;99.90;;;;;;5054452;28;20032;-73
2024/03/28 01:41:52;;;;;;;71.28;67.75;;;8.60;99.90;;;;;;5053512;28;20029;-74
2024/03/28 01:44:21;;;;;;;67.82;64.53;;;8.50;99.90;;;;;;5054471;28;20385;-73
2024/03/28 01:46:49;;;;;;;82.00;78.07;;;8.50;99.90;;;;;;5051755;28;20040;-73
2024/03/28 01:49:15;;;;;;;59.22;56.42;;;8.40;99.90;;;;;;5054389;28;20033;-72
2024/03/28 01:51:41;;;;;;;65.25;62.13;;;8.40;99.90;;;;;;5052546;28;20615;-73
2024/03/28 01:54:07;;;;;;;41.30;39.33;;;8.40;99.90;;;;;;5052963;28;20032;-73
2024/03/28 01:56:34;;;;;;;40.42;38.53;;;8.40;99.90;;;;;;5039800;28;20037;-74
2024/03/28 01:59:01;;;;;;;36.65;34.90;;;8.40;99.90;;;;;;5033418;28;20048;-74
2024/03/28 02:01:27;;;;;;;42.40;40.35;;;8.40;99.90;;;;;;5042842;28;20029;-73
2024/03/28 02:03:53;;;;;;;35.05;33.38;;;8.40;99.90;;;;;;5052878;28;20040;-73
2024/03/28 02:06:19;;;;;;;45.40;43.22;;;8.40;99.90;;;;;;5052169;28;20033;-74
2024/03/28 02:08:46;;;;;;;40.40;38.47;;;8.40;99.90;;;;;;5053799;28;20032;-73
2024/03/28 02:11:12;;;;;;;45.28;43.13;;;8.40;99.90;;;;;;5051996;28;20029;-74
2024/03/28 02:13:38;;;;;;;37.80;36.00;;;8.40;99.90;;;;;;5052556;28;20456;-73
2024/03/28 02:16:04;;;;;;;43.03;40.97;;;8.40;99.90;;;;;;5067927;28;20037;-73
2024/03/28 02:18:30;;;;;;;81.57;77.60;;;8.40;99.90;;;;;;5053613;28;20029;-73
2024/03/28 02:20:57;;;;;;;50.90;48.47;;;8.40;99.90;;;;;;5053095;28;20025;-72
2024/03/28 02:23:23;;;;;;;131.85;125.10;;;8.30;99.90;;;;;;5053502;28;20029;-73
2024/03/28 02:25:49;;;;;;;56.70;54.03;;;8.30;99.90;;;;;;5050892;28;20481;-73
2024/03/28 02:28:15;;;;;;;104.28;99.13;;;8.20;99.90;;;;;;5052852;28;20036;-73
2024/03/28 02:30:41;;;;;;;68.30;65.00;;;8.20;99.90;;;;;;5052555;28;20571;-73
2024/03/28 02:33:07;;;;;;;81.53;77.60;;;8.00;99.90;;;;;;5053493;28;20021;-73
2024/03/28 02:35:33;;;;;;;104.65;97.75;;;8.00;99.90;;;;;;5052913;28;20029;-73
2024/03/28 02:37:59;;;;;;;50.92;48.50;;;7.90;99.90;;;;;;5068492;28;20041;-72
2024/03/28 02:40:26;;;;;;;47.58;45.33;;;7.90;99.90;;;;;;5051405;28;20025;-73
2024/03/28 02:42:52;;;;;;;50.63;47.65;;;7.90;99.90;;;;;;5052124;28;20088;-73
2024/03/28 02:45:18;;;;;;;51.83;49.38;;;7.90;99.90;;;;;;5052304;28;20040;-73
2024/03/28 02:47:45;;;;;;;52.53;50.08;;;7.90;99.90;;;;;;5053169;28;20481;-73
2024/03/28 02:50:11;;;;;;;61.70;58.78;;;8.00;99.90;;;;;;5052385;28;20036;-73
2024/03/28 02:52:37;;;;;;;53.80;51.22;;;8.00;99.90;;;;;;5052817;28;20369;-73
2024/03/28 02:55:03;;;;;;;58.95;56.20;;;8.00;99.90;;;;;;5052944;28;20032;-73
2024/03/28 02:57:30;;;;;;;53.78;51.22;;;8.00;99.90;;;;;;5032968;28;20040;-73
2024/03/28 02:59:56;;;;;;;58.65;55.90;;;8.00;99.90;;;;;;5033050;28;20036;-72
2024/03/28 03:02:23;;;;;;;56.13;53.42;;;8.00;99.90;;;;;;5036582;28;20049;-73
2024/03/28 03:04:49;;;;;;;64.72;61.65;;;8.10;99.90;;;;;;5026891;28;21669;-74
2024/03/28 03:07:15;;;;;;;70.50;67.15;;;8.10;99.90;;;;;;5033736;28;20040;-72
2024/03/28 03:09:44;;;;;;;54.30;51.70;;;8.10;99.90;;;;;;5031533;28;20060;-73
2024/03/28 03:12:10;;;;;;;65.55;62.45;;;8.10;99.90;;;;;;5047705;28;20037;-74
2024/03/28 03:14:37;;;;;;;63.80;60.75;;;8.20;99.90;;;;;;5037843;28;20033;-73
2024/03/28 03:17:03;;;;;;;63.70;60.65;;;8.20;99.90;;;;;;5045889;28;20045;-73
2024/03/28 03:19:29;;;;;;;50.50;48.10;;;8.10;99.90;;;;;;5051070;28;20033;-73
2024/03/28 03:21:56;;;;;;;62.75;59.75;;;8.00;99.90;;;;;;5047034;28;20057;-73
2024/03/28 03:24:23;;;;;;;82.18;78.22;;;8.00;99.90;;;;;;5030706;28;20046;-73
2024/03/28 03:26:54;;;;;;;54.10;51.50;;;7.90;99.90;;;;;;5044757;28;20049;-73
2024/03/28 03:34:51;;;;;;;51.15;48.75;;;8.00;99.90;;;;;;5057015;28;20036;-73
2024/03/28 03:37:24;;;;;;;38.80;36.97;;;7.90;99.90;;;;;;5038754;28;20025;-72
2024/03/28 03:39:59;;;;;;;42.45;40.45;;;8.00;99.90;;;;;;5032501;28;20501;-73
2024/03/28 03:42:25;;;;;;;32.60;31.10;;;8.00;99.90;;;;;;5050332;28;20052;-73
2024/03/28 03:44:51;;;;;;;37.40;35.65;;;8.00;99.90;;;;;;5050998;28;20469;-73
2024/03/28 03:47:17;;;;;;;42.40;40.40;;;8.00;99.90;;;;;;5051485;28;20037;-72
2024/03/28 03:49:44;;;;;;;57.63;54.88;;;8.00;99.90;;;;;;5051998;28;20036;-73
2024/03/28 03:52:10;;;;;;;50.40;48.00;;;8.00;99.90;;;;;;5051442;28;20045;-73
2024/03/28 03:54:38;;;;;;;49.38;46.63;;;7.90;99.90;;;;;;5050895;28;20036;-73
2024/03/28 03:57:04;;;;;;;44.83;42.53;;;8.00;99.90;;;;;;5035452;28;20025;-73
2024/03/28 03:59:30;;;;;;;39.53;37.65;;;7.90;99.90;;;;;;5032178;28;20040;-73
2024/03/28 04:01:57;;;;;;;31.95;30.45;;;7.80;99.90;;;;;;5046096;28;20037;-73
2024/03/28 04:04:23;;;;;;;33.13;31.58;;;7.80;99.90;;;;;;5052295;28;20049;-73
2024/03/28 04:06:49;;;;;;;37.30;35.58;;;7.80;99.90;;;;;;5051136;28;20185;-73
2024/03/28 04:09:15;;;;;;;46.47;44.28;;;7.80;99.90;;;;;;5052554;28;20090;-72
2024/03/28 04:11:41;;;;;;;38.13;36.28;;;7.70;99.90;;;;;;5051607;28;20040;-73
2024/03/28 04:14:07;;;;;;;39.65;37.78;;;7.60;99.90;;;;;;5051868;28;20485;-73
2024/03/28 04:16:34;;;;;;;51.22;48.33;;;7.50;99.90;;;;;;5051116;28;20409;-73
2024/03/28 04:19:00;;;;;;;51.78;49.30;;;7.60;99.90;;;;;;5051906;28;20382;-72
2024/03/28 04:21:29;;;;;;;34.83;33.13;;;7.50;99.90;;;;;;5051014;28;20108;-72
2024/03/28 04:23:58;;;;;;;41.50;39.30;;;7.40;99.90;;;;;;5052011;28;20041;-72
2024/03/28 04:26:24;;;;;;;31.58;30.08;;;7.40;99.90;;;;;;5051440;28;20029;-72
2024/03/28 04:28:50;;;;;;;31.70;30.15;;;7.40;99.90;;;;;;5051859;28;20031;-73
2024/03/28 04:31:16;;;;;;;30.00;28.48;;;7.40;99.90;;;;;;5049729;28;20036;-71
2024/03/28 04:33:42;;;;;;;29.98;28.55;;;7.50;99.90;;;;;;5051776;28;20465;-73
2024/03/28 04:36:08;;;;;;;35.97;34.28;;;7.40;99.90;;;;;;5050857;28;20037;-72
2024/03/28 04:38:35;;;;;;;36.88;35.13;;;7.40;99.90;;;;;;5051780;28;20367;-73
2024/03/28 04:41:03;;;;;;;30.33;28.90;;;7.40;99.90;;;;;;5051248;28;20029;-73
2024/03/28 04:43:30;;;;;;;31.23;29.75;;;7.40;99.90;;;;;;5051729;28;20044;-73
2024/03/28 04:45:56;;;;;;;33.53;31.95;;;7.40;99.90;;;;;;5050441;28;20104;-72
2024/03/28 04:48:22;;;;;;;31.65;30.15;;;7.40;99.90;;;;;;5051653;28;20033;-73
2024/03/28 04:50:48;;;;;;;33.88;31.98;;;7.40;99.90;;;;;;5053142;28;20389;-72
2024/03/28 04:53:14;;;;;;;31.90;30.40;;;7.40;99.90;;;;;;5055492;28;20041;-73
2024/03/28 04:55:40;;;;;;;32.90;31.35;;;7.50;99.90;;;;;;5050052;28;20029;-73
2024/03/28 04:58:06;;;;;;;32.55;31.02;;;7.40;99.90;;;;;;5035440;28;20025;-72
2024/03/28 05:00:33;;;;;;;41.65;39.67;;;7.40;99.90;;;;;;5037815;28;20029;-73
2024/03/28 05:02:59;;;;;;;45.95;43.78;;;7.40;99.90;;;;;;5055005;28;20464;-73
2024/03/28 05:05:25;;;;;;;49.42;47.03;;;7.40;99.90;;;;;;5054214;28;20025;-72
2024/03/28 05:07:51;;;;;;;50.00;47.45;;;7.40;99.90;;;;;;5055237;28;20421;-73
2024/03/28 05:10:17;;;;;;;46.58;44.38;;;7.50;99.90;;;;;;5054356;28;20040;-72
2024/03/28 05:12:43;;;;;;;47.30;45.05;;;7.50;99.90;;;;;;5055073;28;20044;-72
2024/03/28 05:15:10;;;;;;;46.53;44.33;;;7.40;99.90;;;;;;5054020;28;20033;-73
2024/03/28 05:17:36;;;;;;;44.22;42.13;;;7.40;99.90;;;;;;5054570;28;20045;-72
2024/03/28 05:20:03;;;;;;;39.03;37.20;;;7.50;99.90;;;;;;5054924;28;20033;-73
2024/03/28 05:22:29;;;;;;;57.42;54.45;;;7.40;99.90;;;;;;5054212;28;20390;-73
2024/03/28 05:24:56;;;;;;;53.70;51.13;;;7.40;99.90;;;;;;5054835;28;20037;-72
2024/03/28 05:27:22;;;;;;;46.72;44.50;;;7.40;99.90;;;;;;5054224;28;20413;-73
2024/03/28 05:29:48;;;;;;;40.17;38.17;;;7.30;99.90;;;;;;5054690;28;20044;-72
2024/03/28 05:32:14;;;;;;;46.47;44.20;;;7.20;99.90;;;;;;5053710;28;20048;-72
2024/03/28 05:34:42;;;;;;;54.63;52.03;;;7.20;99.90;;;;;;5054616;28;20397;-72
2024/03/28 05:37:08;;;;;;;64.95;61.88;;;7.20;99.90;;;;;;5043936;28;20354;-73
2024/03/28 05:39:34;;;;;;;69.45;66.15;;;7.10;99.90;;;;;;5034645;28;20470;-72
2024/03/28 05:42:01;;;;;;;83.13;79.18;;;7.10;99.90;;;;;;5034581;28;20053;-72
2024/03/28 05:44:27;;;;;;;62.58;59.63;;;7.20;99.90;;;;;;5034945;28;20390;-72
2024/03/28 05:46:53;;;;;;;60.40;57.55;;;7.20;99.90;;;;;;5033732;28;20045;-73
2024/03/28 05:49:19;;;;;;;61.58;58.65;;;7.20;99.90;;;;;;5034394;28;20037;-73
2024/03/28 05:51:45;;;;;;;51.00;48.60;;;7.10;99.90;;;;;;5034191;28;20038;-73
2024/03/28 05:54:11;;;;;;;47.22;45.00;;;7.10;99.90;;;;;;5034419;28;20025;-73
2024/03/28 05:56:37;;;;;;;41.75;39.78;;;7.10;99.90;;;;;;5034142;28;20459;-73
2024/03/28 05:59:03;;;;;;;46.90;44.70;;;7.10;99.90;;;;;;5034146;28;20025;-72
2024/03/28 06:01:30;;;;;;;49.88;47.53;;;7.10;99.90;;;;;;5033150;28;20060;-72
2024/03/28 06:03:56;;;;;;;45.75;43.60;;;7.20;99.90;;;;;;5034188;28;20425;-72
2024/03/28 06:06:22;;;;;;;59.00;56.20;;;7.20;99.90;;;;;;5033527;28;20429;-72
2024/03/28 06:08:48;;;;;;;48.97;46.63;;;7.30;99.90;;;;;;5034122;28;20363;-73
2024/03/28 06:11:14;;;;;;;42.55;40.55;;;7.30;99.90;;;;;;5033922;28;20041;-72
2024/03/28 06:13:40;;;;;;;43.42;41.35;;;7.30;99.90;;;;;;5033931;28;20052;-72
2024/03/28 06:16:06;;;;;;;48.00;45.72;;;7.40;99.90;;;;;;5033099;28;20466;-73
2024/03/28 06:18:33;;;;;;;43.72;41.65;;;7.40;99.90;;;;;;5033995;28;20029;-73
2024/03/28 06:21:05;;;;;;;44.78;42.67;;;7.30;99.90;;;;;;5033625;28;20041;-72
2024/03/28 06:23:31;;;;;;;45.88;43.72;;;7.40;99.90;;;;;;5033800;28;20046;-72
2024/03/28 06:26:01;;;;;;;44.05;41.97;;;7.40;99.90;;;;;;5033609;28;20026;-72
2024/03/28 06:28:28;;;;;;;40.13;38.22;;;7.40;99.90;;;;;;5033871;28;20056;-73
2024/03/28 06:30:56;;;;;;;40.10;38.17;;;7.40;99.90;;;;;;5032591;28;20493;-72
2024/03/28 06:33:23;;;;;;;40.22;38.33;;;7.50;99.90;;;;;;5033207;28;20501;-73
2024/03/28 06:35:49;;;;;;;43.67;41.63;;;7.50;99.90;;;;;;5033222;28;20096;-73
2024/03/28 06:38:16;;;;;;;46.70;44.50;;;7.50;99.90;;;;;;5052974;28;20496;-73
2024/03/28 06:40:42;;;;;;;46.72;44.40;;;7.60;99.90;;;;;;5053183;28;20382;-73
2024/03/28 06:43:08;;;;;;;40.53;38.60;;;7.50;99.90;;;;;;5053244;28;20028;-73
2024/03/28 06:45:34;;;;;;;37.80;36.00;;;7.40;99.90;;;;;;5051921;28;20032;-73
2024/03/28 06:48:00;;;;;;;43.20;41.05;;;7.40;99.90;;;;;;5053222;28;20036;-73
2024/03/28 06:50:26;;;;;;;35.58;33.90;;;7.40;99.90;;;;;;5052686;28;20048;-72
2024/03/28 06:52:53;;;;;;;36.70;34.97;;;7.50;99.90;;;;;;5053086;28;20028;-73
2024/03/28 06:55:19;;;;;;;38.17;36.33;;;7.50;99.90;;;;;;5050743;28;20033;-72
2024/03/28 06:57:45;;;;;;;42.88;40.80;;;7.60;99.90;;;;;;5033069;28;20025;-73
2024/03/28 07:00:12;;;;;;;45.40;43.25;;;7.60;99.90;;;;;;5031844;28;20022;-72
2024/03/28 07:02:38;;;;;;;37.90;36.10;;;7.60;99.90;;;;;;5013142;28;20494;-72
2024/03/28 07:05:05;;;;;;;39.65;37.78;;;7.70;99.90;;;;;;5013143;28;20033;-73
2024/03/28 07:07:31;;;;;;;34.88;33.22;;;7.70;99.90;;;;;;5051449;28;20064;-72
2024/03/28 07:09:58;;;;;;;29.90;28.50;;;7.70;99.90;;;;;;5052524;28;20025;-72
2024/03/28 07:12:25;;;;;;;30.77;29.38;;;7.80;99.90;;;;;;5051729;28;20033;-72
2024/03/28 07:14:51;;;;;;;30.00;28.60;;;7.70;99.90;;;;;;5052401;28;20131;-72
2024/03/28 07:17:17;;;;;;;44.90;42.80;;;7.80;99.90;;;;;;5051958;28;20044;-71
2024/03/28 07:19:43;;;;;;;40.15;38.25;;;7.80;99.90;;;;;;5052639;28;20037;-72
2024/03/28 07:22:09;;;;;;;38.58;36.78;;;7.90;99.90;;;;;;5051781;28;20049;-73
2024/03/28 07:24:35;;;;;;;40.88;38.97;;;7.90;99.90;;;;;;5052741;28;20037;-72
2024/03/28 07:27:02;;;;;;;44.67;42.45;;;8.10;99.90;;;;;;5052001;28;20037;-73
2024/03/28 07:29:29;;;;;;;30.30;28.90;;;8.40;99.90;;;;;;5052250;28;20041;-73
2024/03/28 07:31:55;;;;;;;39.42;37.58;;;8.60;99.90;;;;;;5051491;28;20044;-73
2024/03/28 07:34:21;;;;;;;39.10;37.25;;;8.70;99.90;;;;;;5052425;28;20039;-73
2024/03/28 07:36:47;;;;;;;36.42;34.72;;;8.90;99.90;;;;;;5051759;28;20508;-73
2024/03/28 07:39:14;;;;;;;34.63;32.90;;;9.10;99.90;;;;;;5052331;28;20032;-72
2024/03/28 07:41:42;;;;;;;36.88;35.17;;;9.20;99.90;;;;;;5051833;28;20053;-73
2024/03/28 07:44:08;;;;;;;68.05;64.80;;;9.40;99.90;;;;;;5051949;28;20040;-73
2024/03/28 07:46:34;;;;;;;103.13;98.15;;;9.60;99.90;;;;;;5051378;28;20045;-73
2024/03/28 07:49:03;;;;;;;44.42;42.35;;;9.80;99.90;;;;;;5052094;28;20108;-73
2024/03/28 07:51:29;;;;;;;41.15;38.95;;;9.90;99.90;;;;;;5051546;28;20055;-72
2024/03/28 07:53:55;;;;;;;51.60;48.95;;;10.00;99.90;;;;;;5067646;28;20044;-72
2024/03/28 07:56:21;;;;;;;32.03;30.40;;;10.20;99.90;;;;;;5041303;28;20506;-73
2024/03/28 07:58:47;;;;;;;55.15;52.53;;;10.30;99.90;;;;;;5031834;28;20025;-73
2024/03/28 08:01:13;;;;;;;43.72;40.25;;;10.40;99.90;;;;;;5040370;28;20063;-72
2024/03/28 08:03:39;;;;;;;67.03;63.85;;;10.60;99.90;;;;;;5052009;28;20382;-72
2024/03/28 08:06:05;;;;;;;102.28;97.32;;;10.60;99.90;;;;;;5051539;28;20037;-73
2024/03/28 08:08:32;;;;;;;193.38;183.77;;;10.50;99.90;;;;;;5052072;28;20523;-73
2024/03/28 08:10:58;;;;;;;109.03;103.70;;;10.60;99.90;;;;;;5051405;28;20485;-73
2024/03/28 08:13:25;;;;;;;60.53;57.08;;;10.60;99.90;;;;;;5051710;28;20032;-73
2024/03/28 08:15:52;;;;;;;91.72;87.20;;;10.60;99.90;;;;;;5050945;28;20037;-73
2024/03/28 08:18:18;;;;;;;48.17;45.85;;;10.60;99.90;;;;;;5051969;28;20040;-73
2024/03/28 08:20:45;;;;;;;43.53;41.47;;;10.40;99.90;;;;;;5051101;28;20052;-73
2024/03/28 08:23:11;;;;;;;40.53;38.13;;;10.30;99.90;;;;;;5051836;28;20079;-73
2024/03/28 08:25:37;;;;;;;47.70;45.38;;;10.10;99.90;;;;;;5055346;28;20037;-73
2024/03/28 08:28:04;;;;;;;49.78;47.38;;;9.80;99.90;;;;;;5055300;28;20048;-73
2024/03/28 08:30:32;;;;;;;56.10;53.42;;;9.70;99.90;;;;;;5054809;28;20053;-72
2024/03/28 08:32:58;;;;;;;36.90;35.00;;;9.70;99.90;;;;;;5055721;28;20040;-73
2024/03/28 08:35:24;;;;;;;78.13;74.32;;;9.80;99.90;;;;;;5055126;28;20033;-72
2024/03/28 08:37:52;;;;;;;100.25;95.13;;;9.90;99.90;;;;;;5039106;28;20438;-73
2024/03/28 08:40:18;;;;;;;94.25;89.40;;;10.20;99.90;;;;;;5036615;28;20060;-73
2024/03/28 08:42:44;;;;;;;77.65;73.35;;;10.50;99.90;;;;;;5070556;28;20054;-73
2024/03/28 08:45:13;;;;;;;69.47;65.95;;;10.70;99.90;;;;;;5054453;28;20033;-72
2024/03/28 08:47:43;;;;;;;70.60;66.40;;;10.90;99.90;;;;;;5055429;28;20029;-73
2024/03/28 08:50:10;;;;;;;63.97;60.78;;;11.10;99.90;;;;;;5055490;28;20401;-73
2024/03/28 08:52:38;;;;;;;56.22;53.47;;;11.30;99.90;;;;;;5035418;28;20401;-71
2024/03/28 08:55:05;;;;;;;145.55;137.75;;;11.40;99.90;;;;;;5035601;28;20402;-72
2024/03/28 08:57:31;;;;;;;117.10;111.35;;;11.50;99.90;;;;;;5053548;28;20037;-74
2024/03/28 08:59:58;;;;;;;98.25;93.50;;;11.50;99.90;;;;;;5055205;28;20041;-72
2024/03/28 09:02:24;;;;;;;114.97;109.22;;;11.60;99.90;;;;;;5054169;28;20052;-73
2024/03/28 09:04:51;;;;;;;29.98;28.55;;;11.80;99.90;;;;;;5055129;28;20025;-73
2024/03/28 09:07:19;;;;;;;30.83;29.27;;;12.00;99.90;;;;;;5054587;28;20052;-72
2024/03/28 09:09:45;;;;;;;27.38;25.98;;;12.10;99.90;;;;;;5054856;28;20033;-73
2024/03/28 09:12:11;;;;;;;43.67;41.55;;;12.20;99.90;;;;;;5054928;28;20516;-73
2024/03/28 09:14:38;;;;;;;42.22;40.05;;;12.30;99.90;;;;;;5054986;28;20470;-73
2024/03/28 09:17:04;;;;;;;52.13;49.67;;;12.40;99.90;;;;;;5054013;28;20044;-73
2024/03/28 09:19:31;;;;;;;68.88;65.07;;;12.50;99.90;;;;;;5054908;28;20021;-73
2024/03/28 09:21:57;;;;;;;83.63;79.57;;;12.70;99.90;;;;;;5054126;28;20056;-73
2024/03/28 09:24:23;;;;;;;81.55;77.00;;;12.80;99.90;;;;;;5054561;28;20041;-73
2024/03/28 09:26:49;;;;;;;42.28;40.28;;;12.80;99.90;;;;;;5054324;28;20355;-73
2024/03/28 09:29:20;;;;;;;154.40;146.80;;;12.60;99.90;;;;;;5054813;28;20030;-73
2024/03/28 09:31:48;;;;;;;1999.90;999.90;;;12.10;99.90;;;;;;5053695;28;20044;-73
2024/03/28 09:34:17;;;;;;;1999.90;999.90;;;11.10;99.90;;;;;;5054849;28;20044;-73
2024/03/28 09:36:43;;;;;;;1999.90;999.90;;;10.50;99.90;;;;;;5053198;28;20037;-73
2024/03/28 09:39:11;;;;;;;1999.90;999.90;;;10.20;99.90;;;;;;5054208;28;20044;-73
2024/03/28 09:41:38;;;;;;;1999.90;999.90;;;9.90;99.90;;;;;;5054065;28;20056;-73
2024/03/28 09:44:05;;;;;;;1999.90;999.90;;;9.70;99.90;;;;;;5054235;28;20025;-73
2024/03/28 09:46:33;;;;;;;1999.90;999.90;;;9.60;99.90;;;;;;5053565;28;20417;-73
2024/03/28 09:49:04;;;;;;;1999.90;999.90;;;9.60;99.90;;;;;;5052756;28;20048;-73
2024/03/28 09:51:30;;;;;;;1999.90;999.90;;;9.60;99.90;;;;;;5052534;28;20037;-72
2024/03/28 09:53:56;;;;;;;1999.90;999.90;;;9.60;99.90;;;;;;5052845;28;20048;-73
2024/03/28 09:56:23;;;;;;;1999.90;999.90;;;9.60;99.90;;;;;;5042157;28;20060;-73
2024/03/28 09:58:50;;;;;;;1999.90;999.90;;;9.80;99.90;;;;;;5033106;28;20025;-72
2024/03/28 10:01:16;;;;;;;79.55;75.50;;;10.00;99.90;;;;;;5042037;28;20064;-72
2024/03/28 10:04:14;;;;;;;97.82;92.88;;;10.30;99.90;;;;;;5054059;28;20041;-72
2024/03/28 10:06:50;;;;;;;85.60;81.20;;;10.70;99.90;;;;;;5048267;28;20045;-73
2024/03/28 10:09:16;;;;;;;117.55;111.60;;;10.90;99.90;;;;;;5053573;28;20350;-71
2024/03/28 10:11:43;;;;;;;91.43;86.85;;;10.90;99.90;;;;;;5052188;28;20041;-73
2024/03/28 10:14:12;;;;;;;46.72;44.50;;;10.80;99.90;;;;;;5053870;28;20044;-72
2024/03/28 10:16:38;;;;;;;47.17;44.92;;;10.90;99.90;;;;;;5053002;28;20056;-72
2024/03/28 10:19:06;;;;;;;34.45;32.80;;;10.90;99.90;;;;;;5053754;28;20032;-73
2024/03/28 10:21:32;;;;;;;99.35;94.50;;;11.00;99.90;;;;;;5053035;28;20045;-73
2024/03/28 10:23:58;;;;;;;57.92;55.15;;;11.00;99.90;;;;;;5052207;28;20037;-72
2024/03/28 10:26:28;;;;;;;61.45;58.45;;;11.00;99.90;;;;;;5053083;28;20044;-73
2024/03/28 10:28:55;;;;;;;137.07;130.00;;;11.20;99.90;;;;;;5053236;28;20397;-73
2024/03/28 10:31:24;;;;;;;153.82;146.32;;;11.50;99.90;;;;;;5051097;28;20052;-72
2024/03/28 10:33:52;;;;;;;80.10;76.25;;;11.50;99.90;;;;;;5053638;28;20033;-73
2024/03/28 10:36:22;;;;;;;68.65;64.93;;;11.70;99.90;;;;;;5052831;28;20052;-73
2024/03/28 10:38:48;;;;;;;129.85;123.43;;;12.00;99.90;;;;;;5053040;28;20033;-74
2024/03/28 10:41:15;;;;;;;264.98;251.13;;;12.10;99.90;;;;;;5052874;28;20029;-73
2024/03/28 10:43:42;;;;;;;64.07;60.80;;;12.10;99.90;;;;;;5053489;28;20033;-73
2024/03/28 10:46:12;;;;;;;255.73;241.93;;;12.00;99.90;;;;;;5051121;28;20051;-73
2024/03/28 10:48:38;;;;;;;78.25;74.35;;;11.90;99.90;;;;;;5050202;28;20044;-73
2024/03/28 10:51:11;;;;;;;69.35;66.05;;;11.90;99.90;;;;;;5051053;28;20048;-71
2024/03/28 10:53:41;;;;;;;114.55;109.00;;;11.90;99.90;;;;;;5051707;28;20045;-72
2024/03/28 10:56:12;;;;;;;116.30;110.67;;;12.00;99.90;;;;;;5042954;28;20025;-73
2024/03/28 10:58:38;;;;;;;80.60;76.68;;;12.10;99.90;;;;;;5031920;28;20768;-72
2024/03/28 11:01:08;;;;;;;41.20;39.03;;;12.10;99.90;;;;;;5039456;28;20041;-72
2024/03/28 11:03:34;;;;;;;32.15;30.63;;;12.20;99.90;;;;;;5052835;28;20032;-72
2024/03/28 11:06:01;;;;;;;28.85;27.48;;;12.20;99.90;;;;;;5052043;28;20465;-72
2024/03/28 11:08:28;;;;;;;56.03;53.28;;;12.20;99.90;;;;;;5053070;28;20044;-72
2024/03/28 11:11:01;;;;;;;35.38;33.53;;;12.20;99.90;;;;;;5051439;28;20052;-73
2024/03/28 11:13:27;;;;;;;179.65;170.82;;;12.30;99.90;;;;;;5051525;28;20021;-72
2024/03/28 11:16:04;;;;;;;121.50;115.53;;;12.40;99.90;;;;;;5050448;28;20128;-73
2024/03/28 11:18:33;;;;;;;1999.90;999.90;;;12.40;99.90;;;;;;5052605;28;20025;-73
2024/03/28 11:20:59;;;;;;;1999.90;999.90;;;12.50;99.90;;;;;;5051680;28;20040;-72
2024/03/28 11:23:26;;;;;;;1999.90;999.90;;;12.50;99.90;;;;;;5052515;28;20033;-73
2024/03/28 11:26:19;;;;;;;1999.90;999.90;;;12.60;99.90;;;;;;5052229;28;20035;-73
2024/03/28 11:28:45;;;;;;;1999.90;999.90;;;12.60;99.90;;;;;;5052353;28;20036;-72
2024/03/28 11:31:13;;;;;;;1999.90;999.90;;;12.60;99.90;;;;;;5050461;28;20520;-73
2024/03/28 11:33:43;;;;;;;1999.90;999.90;;;12.70;99.90;;;;;;5052614;28;20037;-72
2024/03/28 11:36:09;;;;;;;1999.90;999.90;;;12.80;99.90;;;;;;5048979;28;20037;-73
2024/03/28 11:38:36;;;;;;;1999.90;999.90;;;12.80;99.90;;;;;;5032891;28;20033;-73
2024/03/28 11:41:05;;;;;;;1999.90;999.90;;;13.00;99.90;;;;;;5038921;28;20029;-73
2024/03/28 11:43:32;;;;;;;1999.90;999.90;;;13.20;99.90;;;;;;5052336;28;20379;-73
2024/03/28 11:46:02;;;;;;;1999.90;999.90;;;13.10;99.90;;;;;;5051545;28;20033;-72
2024/03/28 11:48:35;;;;;;;1999.90;999.90;;;13.10;99.90;;;;;;5052143;28;20029;-73
2024/03/28 11:51:04;;;;;;;1999.90;999.90;;;12.90;99.90;;;;;;5051389;28;20060;-73
2024/03/28 11:53:36;;;;;;;1999.90;999.90;;;13.00;99.90;;;;;;5051228;28;20029;-73
2024/03/28 11:56:03;;;;;;;1999.90;999.90;;;13.10;99.90;;;;;;5042719;28;20385;-73
2024/03/28 11:58:29;;;;;;;1999.90;999.90;;;13.10;99.90;;;;;;5033231;28;20044;-74
2024/03/28 12:01:01;;;;;;;1999.90;999.90;;;13.10;99.90;;;;;;5044735;28;20032;-73
2024/03/28 12:03:27;;;;;;;1999.90;999.90;;;13.10;99.90;;;;;;5058785;28;20029;-73
2024/03/28 12:05:53;;;;;;;1999.90;999.90;;;13.30;99.90;;;;;;5058289;28;20033;-73
2024/03/28 12:08:27;;;;;;;1999.90;999.90;;;13.30;99.90;;;;;;5058630;28;20040;-73
2024/03/28 12:11:08;;;;;;;1999.90;999.90;;;13.10;99.90;;;;;;5058157;28;20361;-74
2024/03/28 12:13:34;;;;;;;1999.90;999.90;;;13.10;99.90;;;;;;5058614;28;20395;-74
2024/03/28 12:16:01;;;;;;;1999.90;999.90;;;13.10;99.90;;;;;;5057762;28;20032;-73
2024/03/28 12:18:28;;;;;;;1999.90;999.90;;;13.20;99.90;;;;;;5058411;28;20044;-73
2024/03/28 12:21:01;;;;;;;1999.90;999.90;;;13.40;99.90;;;;;;5056800;28;20025;-72
2024/03/28 12:23:27;;;;;;;1999.90;999.90;;;13.50;99.90;;;;;;5058600;28;20037;-73
2024/03/28 12:25:53;;;;;;;1999.90;999.90;;;13.60;99.90;;;;;;5058174;28;20409;-73
2024/03/28 12:28:21;;;;;;;1999.90;999.90;;;13.70;99.90;;;;;;5058691;28;20044;-74
2024/03/28 12:30:49;;;;;;;1999.90;999.90;;;13.70;99.90;;;;;;5057778;28;20513;-73
2024/03/28 12:33:16;;;;;;;1999.90;999.90;;;13.80;99.90;;;;;;5058092;28;20041;-73